Time;durP1;ratioP1;P1;durP2;ratioP2;P2;SDS_P1;SDS_P2;PMS_P1;PMS_P2;Temp;Humidity;BMP_temperature;BMP_pressure;BME280_temperature;BME280_humidity;BME280_pressure;Samples;Min_cycle;Max_cycle;Signal;HPM_P1;HPM_P2
2021/09/11 00:04:00;;;;;;;7.43;4.67;;;20.70;99.90;;;;;;8323661;28;21553;-78
2021/09/11 00:08:00;;;;;;;4.97;4.57;;;20.80;99.90;;;;;;8336869;28;20698;-77
2021/09/11 00:12:01;;;;;;;4.87;4.50;;;20.70;99.90;;;;;;8326658;28;20188;-77
2021/09/11 00:16:01;;;;;;;5.13;4.60;;;20.70;99.90;;;;;;8329113;28;20195;-77
2021/09/11 00:20:03;;;;;;;5.63;5.17;;;20.70;99.90;;;;;;8327809;28;20563;-82
2021/09/11 00:24:04;;;;;;;8.87;4.57;;;20.70;99.90;;;;;;8339026;28;20180;-80
2021/09/11 00:28:05;;;;;;;10.63;4.40;;;20.80;99.90;;;;;;8334151;28;20475;-78
2021/09/11 00:32:06;;;;;;;5.23;4.73;;;20.80;99.90;;;;;;8324895;28;20435;-80
2021/09/11 00:36:07;;;;;;;5.80;5.37;;;20.80;99.90;;;;;;8322366;28;20215;-80
2021/09/11 00:40:09;;;;;;;5.67;4.33;;;20.80;99.90;;;;;;8327242;28;20446;-78
2021/09/11 00:44:10;;;;;;;6.43;4.70;;;20.80;99.90;;;;;;8323434;28;20654;-77
2021/09/11 00:48:10;;;;;;;5.77;5.30;;;20.70;99.90;;;;;;8322639;28;20478;-79
2021/09/11 00:52:11;;;;;;;6.30;5.70;;;20.70;99.90;;;;;;8317196;28;20194;-77
2021/09/11 00:56:13;;;;;;;7.10;6.40;;;20.60;99.90;;;;;;8326897;28;20184;-78
2021/09/11 01:00:14;;;;;;;6.73;5.97;;;20.60;99.90;;;;;;8334162;28;20202;-77
2021/09/11 01:04:15;;;;;;;7.13;5.50;;;20.60;99.90;;;;;;8312074;28;21224;-79
2021/09/11 01:08:15;;;;;;;7.00;5.80;;;20.60;99.90;;;;;;8317109;28;20458;-78
2021/09/11 01:12:16;;;;;;;6.33;5.63;;;20.60;99.90;;;;;;8320916;28;20746;-78
2021/09/11 01:16:17;;;;;;;6.53;6.03;;;20.60;99.90;;;;;;8308352;28;20216;-77
2021/09/11 01:20:17;;;;;;;9.13;5.60;;;20.60;99.90;;;;;;8320646;28;20446;-81
2021/09/11 01:24:18;;;;;;;6.37;5.90;;;20.60;99.90;;;;;;8320383;28;20176;-78
2021/09/11 01:28:19;;;;;;;18.23;6.50;;;20.60;99.90;;;;;;8319962;28;20212;-80
2021/09/11 01:32:20;;;;;;;7.07;6.37;;;20.50;99.90;;;;;;8320571;28;20188;-79
2021/09/11 01:36:23;;;;;;;9.13;6.40;;;20.40;99.90;;;;;;8334163;28;20446;-78
2021/09/11 01:40:26;;;;;;;6.63;6.07;;;20.40;99.90;;;;;;8329300;28;20534;-77
2021/09/11 01:44:26;;;;;;;8.23;6.50;;;20.30;99.90;;;;;;8319237;28;20439;-77
2021/09/11 01:48:28;;;;;;;17.90;5.77;;;20.30;99.90;;;;;;8318952;28;21381;-78
2021/09/11 01:52:28;;;;;;;6.80;6.10;;;20.30;99.90;;;;;;8326273;28;20544;-78
2021/09/11 01:56:29;;;;;;;7.23;6.33;;;20.20;99.90;;;;;;8321751;28;20488;-77
2021/09/11 02:00:30;;;;;;;11.63;6.47;;;20.20;99.90;;;;;;8314627;28;20194;-78
2021/09/11 02:04:31;;;;;;;8.30;7.40;;;20.20;99.90;;;;;;8324376;28;20228;-77
2021/09/11 02:08:32;;;;;;;8.23;6.90;;;20.20;99.90;;;;;;8322939;28;20242;-79
2021/09/11 02:12:33;;;;;;;8.70;6.40;;;20.20;99.90;;;;;;8320957;28;20438;-83
2021/09/11 02:16:33;;;;;;;8.30;7.50;;;20.20;99.90;;;;;;8319357;28;20705;-78
2021/09/11 02:20:34;;;;;;;7.50;6.80;;;20.30;99.90;;;;;;8340521;28;20443;-80
2021/09/11 02:24:35;;;;;;;9.40;5.97;;;20.30;99.90;;;;;;8312614;28;22039;-78
2021/09/11 02:28:36;;;;;;;7.00;6.10;;;20.30;99.90;;;;;;8319081;28;20239;-79
2021/09/11 02:32:36;;;;;;;6.87;6.30;;;20.40;99.90;;;;;;8320983;28;20445;-80
2021/09/11 02:36:37;;;;;;;10.03;6.87;;;20.40;99.90;;;;;;8327956;28;20185;-80
2021/09/11 02:40:37;;;;;;;9.37;8.47;;;20.40;99.90;;;;;;8329856;28;20210;-81
2021/09/11 02:44:38;;;;;;;8.03;7.17;;;20.30;99.90;;;;;;8339075;28;20189;-81
2021/09/11 02:48:39;;;;;;;12.97;8.57;;;20.20;99.90;;;;;;8325153;28;20664;-84
2021/09/11 02:52:40;;;;;;;14.83;8.80;;;20.20;99.90;;;;;;8317260;28;20449;-84
2021/09/11 02:56:40;;;;;;;10.70;8.40;;;20.20;99.90;;;;;;8318460;28;20190;-76
2021/09/11 03:00:41;;;;;;;10.63;8.00;;;20.20;99.90;;;;;;8324646;28;20187;-80
2021/09/11 03:04:41;;;;;;;12.23;9.13;;;20.20;99.90;;;;;;8321403;28;21627;-82
2021/09/11 03:08:42;;;;;;;10.50;9.07;;;20.20;99.90;;;;;;8328873;28;20204;-79
2021/09/11 03:12:43;;;;;;;19.70;10.73;;;20.10;99.90;;;;;;8323039;28;20184;-79
2021/09/11 03:16:43;;;;;;;12.93;8.67;;;20.10;99.90;;;;;;8337838;28;20184;-79
2021/09/11 03:20:46;;;;;;;12.63;8.50;;;20.10;99.90;;;;;;8351360;28;20191;-82
2021/09/11 03:24:47;;;;;;;18.00;10.23;;;20.10;99.90;;;;;;8326693;28;20643;-80
2021/09/11 03:28:48;;;;;;;13.90;9.60;;;20.10;99.90;;;;;;8331330;28;20469;-80
2021/09/11 03:32:48;;;;;;;11.00;9.33;;;20.10;99.90;;;;;;8322334;28;20642;-78
2021/09/11 03:36:49;;;;;;;14.57;10.33;;;20.10;99.90;;;;;;8330092;28;20206;-79
2021/09/11 03:40:49;;;;;;;15.07;8.87;;;20.10;99.90;;;;;;8331089;28;20191;-78
2021/09/11 03:44:50;;;;;;;9.80;8.57;;;20.10;99.90;;;;;;8331701;28;20184;-79
2021/09/11 03:48:51;;;;;;;12.33;8.07;;;20.10;99.90;;;;;;8320897;28;20223;-80
2021/09/11 03:52:51;;;;;;;7.70;6.83;;;20.10;99.90;;;;;;8330882;28;20180;-84
2021/09/11 03:56:52;;;;;;;10.63;7.80;;;20.10;99.90;;;;;;8334728;28;20221;-84
2021/09/11 04:00:53;;;;;;;10.77;8.10;;;20.00;99.90;;;;;;8328071;28;20188;-85
2021/09/11 04:04:53;;;;;;;8.20;7.43;;;19.90;99.90;;;;;;8336747;28;20229;-79
2021/09/11 04:08:54;;;;;;;9.43;6.43;;;19.70;99.90;;;;;;8333206;28;20470;-81
2021/09/11 04:12:57;;;;;;;11.63;7.30;;;19.60;99.90;;;;;;8338029;28;20184;-78
2021/09/11 04:16:58;;;;;;;7.47;6.77;;;19.50;99.90;;;;;;8336084;28;20246;-80
2021/09/11 04:20:58;;;;;;;7.93;7.13;;;19.50;99.90;;;;;;8325773;28;22096;-81
2021/09/11 04:24:59;;;;;;;7.30;6.30;;;19.50;99.90;;;;;;8327497;28;20432;-80
2021/09/11 04:29:00;;;;;;;8.13;6.77;;;19.50;99.90;;;;;;8331269;28;20299;-80
2021/09/11 04:33:00;;;;;;;11.70;8.00;;;19.40;99.90;;;;;;8328362;28;20442;-79
2021/09/11 04:37:01;;;;;;;8.43;7.13;;;19.40;99.90;;;;;;8322259;28;20184;-79
2021/09/11 04:41:02;;;;;;;11.30;8.00;;;19.40;99.90;;;;;;8324106;28;20754;-78
2021/09/11 04:45:03;;;;;;;9.00;7.33;;;19.40;99.90;;;;;;8315344;28;20180;-80
2021/09/11 04:49:04;;;;;;;11.43;8.20;;;19.40;99.90;;;;;;8329907;28;20223;-80
2021/09/11 04:53:05;;;;;;;9.77;8.80;;;19.40;99.90;;;;;;8327195;28;20481;-78
2021/09/11 04:57:06;;;;;;;10.20;8.30;;;19.40;99.90;;;;;;8323338;28;20203;-82
2021/09/11 05:01:06;;;;;;;18.13;9.37;;;19.50;99.90;;;;;;8329649;28;20216;-77
2021/09/11 05:05:08;;;;;;;10.07;8.77;;;19.50;99.90;;;;;;8328055;28;20442;-79
2021/09/11 05:09:08;;;;;;;14.40;10.33;;;19.50;99.90;;;;;;8324866;28;20207;-78
2021/09/11 05:13:09;;;;;;;11.40;9.63;;;19.50;99.90;;;;;;8321069;28;20453;-77
2021/09/11 05:17:10;;;;;;;12.50;10.43;;;19.50;99.90;;;;;;8326595;28;20369;-79
2021/09/11 05:21:10;;;;;;;11.93;9.83;;;19.40;99.90;;;;;;8319156;28;20641;-78
2021/09/11 05:25:12;;;;;;;12.43;8.73;;;19.40;99.90;;;;;;8324227;28;20187;-77
2021/09/11 05:29:13;;;;;;;14.50;9.07;;;19.40;99.90;;;;;;8333642;28;20651;-80
2021/09/11 05:33:14;;;;;;;12.70;10.93;;;19.50;99.90;;;;;;8323458;28;20437;-78
2021/09/11 05:37:14;;;;;;;10.70;8.90;;;19.50;99.90;;;;;;8318938;28;20588;-81
2021/09/11 05:41:15;;;;;;;12.93;10.87;;;19.50;99.90;;;;;;8331227;28;20183;-80
2021/09/11 05:45:16;;;;;;;16.63;9.37;;;19.50;99.90;;;;;;8324224;28;20187;-79
2021/09/11 05:49:16;;;;;;;11.57;10.33;;;19.50;99.90;;;;;;8324809;28;20220;-79
2021/09/11 05:53:17;;;;;;;12.63;11.30;;;19.50;99.90;;;;;;8319900;28;20857;-78
2021/09/11 05:57:17;;;;;;;15.47;12.17;;;19.50;99.90;;;;;;8320168;28;20366;-83
2021/09/11 06:01:18;;;;;;;14.23;9.73;;;19.60;99.90;;;;;;8329247;28;20176;-77
2021/09/11 06:05:19;;;;;;;11.27;10.07;;;19.60;99.90;;;;;;8326440;28;20184;-79
2021/09/11 06:09:20;;;;;;;21.23;10.87;;;19.70;99.90;;;;;;8323606;28;20222;-81
2021/09/11 06:13:20;;;;;;;14.17;10.20;;;19.70;99.90;;;;;;8321833;28;20195;-79
2021/09/11 06:17:21;;;;;;;17.50;11.00;;;19.70;99.90;;;;;;8317978;28;21273;-82
2021/09/11 06:21:22;;;;;;;13.50;9.60;;;19.70;99.90;;;;;;8319106;28;20454;-80
2021/09/11 06:25:22;;;;;;;11.80;9.80;;;19.60;99.90;;;;;;8335743;28;20180;-77
2021/09/11 06:29:23;;;;;;;15.20;11.30;;;19.70;99.90;;;;;;8318679;28;20270;-80
2021/09/11 06:33:23;;;;;;;13.27;11.77;;;19.70;99.90;;;;;;8319386;28;20192;-79
2021/09/11 06:37:24;;;;;;;16.17;11.30;;;19.80;99.90;;;;;;8317716;28;20978;-80
2021/09/11 06:41:25;;;;;;;11.80;9.97;;;19.80;99.90;;;;;;8310957;28;20192;-85
2021/09/11 06:45:25;;;;;;;11.00;8.27;;;19.80;99.90;;;;;;8303348;28;20222;-78
2021/09/11 06:49:26;;;;;;;12.57;9.10;;;19.90;99.90;;;;;;8313714;28;20245;-78
2021/09/11 06:53:27;;;;;;;9.13;8.20;;;19.90;99.90;;;;;;8319402;28;20180;-79
2021/09/11 06:57:29;;;;;;;12.47;10.37;;;20.00;99.90;;;;;;8329697;28;20196;-79
2021/09/11 07:01:29;;;;;;;10.07;9.07;;;20.00;99.90;;;;;;8322018;28;20258;-79
2021/09/11 07:05:30;;;;;;;10.67;8.70;;;20.10;99.90;;;;;;8320594;28;20456;-79
2021/09/11 07:09:31;;;;;;;10.23;9.00;;;20.20;99.90;;;;;;8319623;28;20215;-80
2021/09/11 07:13:31;;;;;;;10.13;9.10;;;20.30;99.90;;;;;;8323635;28;20361;-80
2021/09/11 07:17:32;;;;;;;10.33;9.00;;;20.50;99.90;;;;;;8327668;28;20234;-79
2021/09/11 07:21:32;;;;;;;10.73;9.70;;;20.70;99.90;;;;;;8340462;28;21052;-78
2021/09/11 07:25:33;;;;;;;15.10;10.00;;;20.80;99.90;;;;;;8342721;28;20172;-81
2021/09/11 07:29:34;;;;;;;10.47;9.37;;;21.00;99.90;;;;;;8354537;28;20208;-79
2021/09/11 07:33:34;;;;;;;12.60;9.53;;;21.20;99.90;;;;;;8329121;28;20180;-79
2021/09/11 07:37:35;;;;;;;14.83;8.53;;;21.30;99.90;;;;;;8326223;28;20187;-78
2021/09/11 07:41:36;;;;;;;9.23;7.43;;;21.60;99.90;;;;;;8321368;28;20180;-80
2021/09/11 07:45:39;;;;;;;11.77;7.90;;;21.60;99.90;;;;;;8323455;28;20186;-79
2021/09/11 07:49:41;;;;;;;8.73;7.60;;;21.60;99.90;;;;;;8326053;28;20293;-80
2021/09/11 07:53:41;;;;;;;7.83;7.10;;;21.70;99.90;;;;;;8324818;28;20452;-77
2021/09/11 07:57:42;;;;;;;17.60;7.83;;;21.70;99.90;;;;;;8329823;28;20199;-79
2021/09/11 08:01:42;;;;;;;6.40;5.80;;;21.70;99.90;;;;;;8328996;28;20172;-79
2021/09/11 08:05:43;;;;;;;8.40;7.30;;;21.70;99.90;;;;;;8327341;28;20194;-78
2021/09/11 08:09:43;;;;;;;6.83;6.13;;;21.80;99.90;;;;;;8338492;28;20679;-80
2021/09/11 08:13:44;;;;;;;8.80;5.77;;;21.90;99.90;;;;;;8318345;28;20245;-79
2021/09/11 08:17:46;;;;;;;6.17;5.67;;;21.90;99.90;;;;;;8327406;28;20289;-78
2021/09/11 08:21:47;;;;;;;6.63;4.97;;;22.00;99.90;;;;;;8329545;28;20277;-77
2021/09/11 08:25:49;;;;;;;4.17;3.83;;;22.20;99.90;;;;;;8327643;28;20478;-78
2021/09/11 08:29:50;;;;;;;6.40;4.80;;;22.30;99.90;;;;;;8321813;28;20215;-78
2021/09/11 08:33:51;;;;;;;4.83;4.10;;;22.50;99.90;;;;;;8320994;28;20455;-78
2021/09/11 08:37:52;;;;;;;7.20;4.17;;;22.60;99.90;;;;;;8339607;28;21045;-77
2021/09/11 08:41:56;;;;;;;9.13;4.30;;;22.70;99.90;;;;;;8319462;28;20192;-79
2021/09/11 08:45:57;;;;;;;6.33;4.40;;;22.60;99.70;;;;;;8329129;28;20231;-79
2021/09/11 08:49:57;;;;;;;4.77;4.30;;;22.60;99.40;;;;;;8322925;28;20478;-78
2021/09/11 08:53:58;;;;;;;4.63;3.97;;;22.80;99.90;;;;;;8323543;28;20180;-78
2021/09/11 08:58:00;;;;;;;8.50;3.53;;;23.00;98.90;;;;;;8322746;28;20207;-79
2021/09/11 09:02:05;;;;;;;5.13;3.93;;;22.90;98.10;;;;;;8322147;28;20180;-78
2021/09/11 09:06:27;;;;;;;6.93;4.90;;;22.80;98.70;;;;;;8322688;28;20456;-76
2021/09/11 09:10:27;;;;;;;4.23;3.83;;;22.70;98.70;;;;;;8316180;28;20459;-78
2021/09/11 09:14:28;;;;;;;4.33;3.57;;;22.60;99.40;;;;;;8317039;28;20417;-77
2021/09/11 09:18:31;;;;;;;3.00;2.80;;;22.80;99.50;;;;;;8322134;28;20769;-77
2021/09/11 09:22:35;;;;;;;5.20;3.83;;;23.50;99.10;;;;;;8321958;28;20180;-77
2021/09/11 09:26:52;;;;;;;5.50;3.40;;;24.30;98.20;;;;;;8326262;28;20771;-80
2021/09/11 09:30:52;;;;;;;5.73;2.67;;;25.10;97.10;;;;;;8326360;28;20470;-77
2021/09/11 09:34:53;;;;;;;3.90;2.93;;;25.70;95.80;;;;;;8321065;28;21037;-81
2021/09/11 09:39:02;;;;;;;2.43;2.33;;;26.30;94.50;;;;;;8352370;28;20642;-80
2021/09/11 09:43:03;;;;;;;6.07;2.53;;;26.80;93.60;;;;;;8325731;28;20495;-80
2021/09/11 09:47:04;;;;;;;5.47;3.20;;;27.30;92.90;;;;;;8339621;28;20430;-82
2021/09/11 09:51:14;;;;;;;3.70;2.40;;;27.50;91.70;;;;;;8358415;28;20480;-79
2021/09/11 09:55:15;;;;;;;4.13;2.13;;;27.80;91.30;;;;;;8351907;28;20183;-77
2021/09/11 09:59:18;;;;;;;4.60;2.40;;;28.20;90.40;;;;;;8321214;28;20825;-75
2021/09/11 10:03:18;;;;;;;2.57;2.40;;;27.60;86.80;;;;;;8317413;28;20654;-78
2021/09/11 10:07:20;;;;;;;5.60;2.27;;;26.80;86.80;;;;;;8307745;28;20442;-77
2021/09/11 10:11:31;;;;;;;2.60;2.40;;;26.40;88.40;;;;;;8306571;28;20845;-77
2021/09/11 10:15:38;;;;;;;6.53;2.57;;;26.20;90.10;;;;;;8320773;28;20454;-79
2021/09/11 10:19:43;;;;;;;6.63;2.17;;;26.10;90.50;;;;;;8301894;28;20445;-77
2021/09/11 10:24:03;;;;;;;2.90;2.70;;;25.90;90.00;;;;;;8310889;28;20533;-77
2021/09/11 10:28:18;;;;;;;4.20;2.80;;;25.80;90.10;;;;;;8306425;28;20482;-77
2021/09/11 10:32:22;;;;;;;6.47;2.30;;;25.60;90.10;;;;;;8309400;28;20433;-77
2021/09/11 10:36:32;;;;;;;7.50;3.47;;;25.50;90.10;;;;;;8316941;28;21023;-76
2021/09/11 10:40:37;;;;;;;2.70;2.37;;;25.30;89.30;;;;;;8309173;28;20471;-78
2021/09/11 10:44:41;;;;;;;2.33;2.23;;;25.10;89.80;;;;;;8314130;28;20442;-76
2021/09/11 10:49:04;;;;;;;;;;;;;;;;;;;;;
2021/09/11 10:53:24;;;;;;;3.23;2.93;;;25.20;90.50;;;;;;8305729;28;21245;-77
2021/09/11 10:57:31;;;;;;;2.73;2.50;;;25.40;90.20;;;;;;8311816;28;20484;-77
2021/09/11 11:01:56;;;;;;;4.57;2.80;;;25.50;89.60;;;;;;8321898;28;20822;-77
2021/09/11 11:06:04;;;;;;;5.73;2.83;;;25.50;90.00;;;;;;8332403;28;20443;-79
2021/09/11 11:10:08;;;;;;;3.80;1.83;;;25.50;89.40;;;;;;8307874;28;20493;-78
2021/09/11 11:14:10;;;;;;;2.40;2.30;;;25.50;88.80;;;;;;8305486;28;20538;-77
2021/09/11 11:18:11;;;;;;;4.13;2.03;;;25.80;88.80;;;;;;8307052;28;21066;-77
2021/09/11 11:22:16;;;;;;;3.27;2.63;;;26.20;89.10;;;;;;8315410;28;20491;-76
2021/09/11 11:26:16;;;;;;;2.63;2.40;;;26.40;86.10;;;;;;8317797;28;20188;-78
2021/09/11 11:30:17;;;;;;;2.37;2.23;;;26.30;87.90;;;;;;8315213;28;20497;-76
2021/09/11 11:34:18;;;;;;;3.90;2.30;;;26.30;87.30;;;;;;8329423;28;20187;-77
2021/09/11 11:38:18;;;;;;;3.27;2.17;;;26.20;87.70;;;;;;8326489;28;20709;-77
2021/09/11 11:42:23;;;;;;;2.10;2.00;;;26.10;88.20;;;;;;8319376;28;20199;-77
2021/09/11 11:46:28;;;;;;;2.27;2.17;;;26.00;85.70;;;;;;8323102;28;20225;-76
2021/09/11 11:50:34;;;;;;;3.80;2.30;;;25.90;84.20;;;;;;8318209;28;20865;-77
2021/09/11 11:54:37;;;;;;;5.53;2.20;;;25.60;85.50;;;;;;8309643;28;20448;-77
2021/09/11 11:58:37;;;;;;;3.83;2.07;;;25.50;86.50;;;;;;8313305;28;20966;-77
2021/09/11 12:02:42;;;;;;;2.63;2.43;;;25.50;87.80;;;;;;8329309;28;20474;-76
2021/09/11 12:06:49;;;;;;;2.70;2.50;;;25.40;88.20;;;;;;8316055;28;20628;-77
2021/09/11 12:10:55;;;;;;;4.83;2.40;;;25.40;87.60;;;;;;8317974;28;20480;-77
2021/09/11 12:14:56;;;;;;;2.97;2.77;;;25.40;88.60;;;;;;8334147;28;21012;-77
2021/09/11 12:19:12;;;;;;;2.77;2.57;;;25.50;88.50;;;;;;8323028;28;20439;-77
2021/09/11 12:23:28;;;;;;;2.43;2.23;;;25.40;87.10;;;;;;8327778;28;20262;-78
2021/09/11 12:27:29;;;;;;;2.07;1.63;;;25.30;88.30;;;;;;8320587;28;20434;-76
2021/09/11 12:31:32;;;;;;;6.83;2.50;;;25.30;87.40;;;;;;8323332;28;20446;-76
2021/09/11 12:35:32;;;;;;;2.93;1.83;;;25.10;86.70;;;;;;8325339;28;20180;-76
2021/09/11 12:39:36;;;;;;;2.30;2.13;;;24.90;87.50;;;;;;8326026;28;20458;-76
2021/09/11 12:43:36;;;;;;;5.20;2.80;;;24.80;87.60;;;;;;8340759;28;20191;-76
2021/09/11 12:47:37;;;;;;;2.50;2.30;;;24.80;87.20;;;;;;8319141;28;21125;-76
2021/09/11 12:51:40;;;;;;;4.37;2.07;;;24.80;87.80;;;;;;8326902;28;20206;-76
2021/09/11 12:55:40;;;;;;;4.63;3.00;;;25.10;87.20;;;;;;8321350;28;20510;-75
2021/09/11 12:59:41;;;;;;;3.70;1.97;;;25.30;86.00;;;;;;8322251;28;20512;-75
2021/09/11 13:03:44;;;;;;;1.97;1.87;;;25.30;86.40;;;;;;8322182;28;20192;-77
2021/09/11 13:07:45;;;;;;;2.37;2.17;;;25.20;86.00;;;;;;8259170;28;20180;-75
2021/09/11 13:11:47;;;;;;;2.20;2.00;;;25.30;85.90;;;;;;3577060;28;10002074;-77
2021/09/11 13:15:47;;;;;;;2.10;2.00;;;25.60;86.50;;;;;;8255395;28;20447;-76
2021/09/11 13:19:48;;;;;;;3.43;2.50;;;25.80;84.80;;;;;;8252070;28;20440;-75
2021/09/11 13:23:50;;;;;;;3.50;3.20;;;25.90;83.50;;;;;;8260056;28;20716;-78
2021/09/11 13:27:51;;;;;;;19.47;11.27;;;26.00;81.80;;;;;;8264650;28;20184;-77
2021/09/11 13:31:55;;;;;;;41.57;24.20;;;26.00;80.40;;;;;;8267727;28;20437;-77
2021/09/11 13:35:57;;;;;;;8.00;6.00;;;26.00;80.70;;;;;;8266643;28;20181;-77
2021/09/11 13:39:58;;;;;;;27.60;16.53;;;25.80;81.00;;;;;;8262473;28;20444;-76
2021/09/11 13:43:59;;;;;;;6.63;2.23;;;25.60;82.80;;;;;;8264564;28;20451;-78
2021/09/11 13:48:00;;;;;;;4.30;2.27;;;25.60;82.70;;;;;;8260047;28;20247;-78
2021/09/11 13:52:01;;;;;;;3.97;2.30;;;25.70;82.90;;;;;;8250608;28;20187;-77
2021/09/11 13:56:01;;;;;;;2.13;1.93;;;25.80;81.00;;;;;;8257513;28;20443;-77
2021/09/11 14:00:03;;;;;;;3.37;2.10;;;26.10;79.90;;;;;;8254346;28;20220;-77
2021/09/11 14:04:04;;;;;;;6.13;1.40;;;26.20;80.00;;;;;;8258279;28;20241;-77
2021/09/11 14:08:05;;;;;;;2.53;2.30;;;26.50;78.30;;;;;;8258367;28;20881;-76
2021/09/11 14:12:09;;;;;;;2.97;1.77;;;26.80;78.50;;;;;;8252345;28;20268;-75
2021/09/11 14:16:11;;;;;;;2.17;2.03;;;26.50;77.30;;;;;;8250855;28;20514;-76
2021/09/11 14:20:14;;;;;;;1.60;1.50;;;26.40;78.50;;;;;;8250714;28;20899;-76
2021/09/11 14:24:14;;;;;;;4.13;3.07;;;26.40;79.90;;;;;;8255145;28;20741;-77
2021/09/11 14:28:15;;;;;;;2.63;2.43;;;26.20;80.40;;;;;;8255638;28;20470;-75
2021/09/11 14:32:18;;;;;;;1.47;1.37;;;26.20;80.10;;;;;;8251537;28;20585;-75
2021/09/11 14:36:19;;;;;;;4.13;2.57;;;26.30;80.70;;;;;;8259903;28;20276;-76
2021/09/11 14:40:19;;;;;;;6.37;2.50;;;26.50;78.10;;;;;;8255584;28;20451;-78
2021/09/11 14:44:20;;;;;;;5.40;2.60;;;26.40;78.40;;;;;;8256569;28;20185;-76
2021/09/11 14:48:21;;;;;;;1.97;1.53;;;26.30;78.40;;;;;;8247243;28;20315;-77
2021/09/11 14:52:21;;;;;;;3.57;2.27;;;26.40;79.80;;;;;;8256532;28;20177;-76
2021/09/11 14:56:22;;;;;;;2.13;2.00;;;26.50;77.90;;;;;;8244981;28;20185;-76
2021/09/11 15:00:23;;;;;;;4.07;2.80;;;26.50;78.40;;;;;;8239277;28;20203;-77
2021/09/11 15:04:26;;;;;;;4.13;1.40;;;26.50;76.50;;;;;;8255708;28;20223;-75
2021/09/11 15:08:26;;;;;;;1.57;1.40;;;26.70;76.40;;;;;;8245895;28;20471;-75
2021/09/11 15:12:27;;;;;;;2.83;1.80;;;26.70;76.30;;;;;;8246316;28;20451;-76
2021/09/11 15:16:29;;;;;;;1.27;1.17;;;26.70;76.10;;;;;;8245452;28;20192;-76
2021/09/11 15:20:30;;;;;;;2.17;1.27;;;26.60;75.70;;;;;;8247937;28;20538;-80
2021/09/11 15:24:30;;;;;;;1.43;1.33;;;26.50;75.70;;;;;;8249244;28;20451;-77
2021/09/11 15:28:31;;;;;;;2.80;2.07;;;26.60;76.40;;;;;;8248089;28;20629;-76
2021/09/11 15:32:32;;;;;;;1.67;1.23;;;26.60;74.80;;;;;;8248046;28;20191;-75
2021/09/11 15:36:32;;;;;;;2.60;1.90;;;26.70;74.00;;;;;;8246505;28;20264;-76
2021/09/11 15:40:33;;;;;;;4.23;2.20;;;26.70;74.60;;;;;;8242478;28;20185;-76
2021/09/11 15:44:33;;;;;;;2.30;1.70;;;26.50;75.70;;;;;;8245573;28;20197;-76
2021/09/11 15:48:36;;;;;;;1.90;1.73;;;26.20;76.50;;;;;;8261690;28;20336;-75
2021/09/11 15:52:37;;;;;;;3.70;1.77;;;25.70;78.60;;;;;;8235949;28;20184;-76
2021/09/11 15:56:38;;;;;;;3.97;2.40;;;25.30;80.00;;;;;;8252450;28;20590;-77
2021/09/11 16:00:39;;;;;;;2.33;2.07;;;25.00;80.60;;;;;;8240809;28;20462;-76
2021/09/11 16:04:39;;;;;;;3.70;2.60;;;24.70;81.60;;;;;;8245376;28;21044;-76
2021/09/11 16:08:40;;;;;;;1.70;1.60;;;24.60;82.80;;;;;;8254391;28;20241;-76
2021/09/11 16:12:41;;;;;;;2.30;2.00;;;24.60;83.00;;;;;;8239978;28;20209;-80
2021/09/11 16:16:42;;;;;;;3.80;1.60;;;24.50;83.80;;;;;;8251076;28;20548;-78
2021/09/11 16:20:44;;;;;;;3.40;1.90;;;24.30;83.90;;;;;;8238366;28;20235;-78
2021/09/11 16:24:44;;;;;;;1.90;1.80;;;24.20;85.00;;;;;;8247737;28;20471;-79
2021/09/11 16:28:45;;;;;;;3.07;1.83;;;24.00;86.50;;;;;;8241773;28;20503;-78
2021/09/11 16:32:46;;;;;;;2.50;2.30;;;23.80;87.40;;;;;;8243345;28;21074;-78
2021/09/11 16:36:47;;;;;;;2.00;1.90;;;23.60;87.90;;;;;;8241213;28;20199;-78
2021/09/11 16:40:48;;;;;;;15.30;12.43;;;23.40;88.90;;;;;;8253668;28;20192;-78
2021/09/11 16:44:49;;;;;;;182.67;101.97;;;23.30;88.90;;;;;;8247053;28;20528;-77
2021/09/11 16:48:51;;;;;;;133.83;77.43;;;23.20;89.80;;;;;;8254265;28;20697;-77
2021/09/11 16:52:51;;;;;;;66.60;45.13;;;23.20;90.40;;;;;;8236587;28;20277;-78
2021/09/11 16:56:52;;;;;;;32.47;19.83;;;23.10;90.30;;;;;;8248552;28;21037;-77
2021/09/11 17:00:53;;;;;;;24.80;16.57;;;23.20;90.20;;;;;;8235462;28;21371;-78
2021/09/11 17:04:53;;;;;;;14.53;6.60;;;23.20;90.60;;;;;;8241121;28;20264;-77
2021/09/11 17:08:54;;;;;;;53.03;30.53;;;23.00;90.90;;;;;;8240733;28;20219;-78
2021/09/11 17:12:55;;;;;;;10.40;6.47;;;23.00;91.30;;;;;;8250970;28;20809;-78
2021/09/11 17:16:55;;;;;;;4.13;3.03;;;22.80;91.20;;;;;;8268063;28;20189;-78
2021/09/11 17:20:56;;;;;;;3.70;2.90;;;22.70;91.50;;;;;;8247260;28;20578;-78
2021/09/11 17:24:57;;;;;;;4.80;3.10;;;22.60;91.70;;;;;;8243122;28;21103;-78
2021/09/11 17:28:57;;;;;;;4.00;3.60;;;22.40;92.00;;;;;;8239862;28;20240;-77
2021/09/11 17:33:02;;;;;;;7.83;5.17;;;22.30;92.40;;;;;;8242060;28;21056;-77
2021/09/11 17:37:04;;;;;;;7.90;4.77;;;22.10;92.90;;;;;;8222921;28;20226;-77
2021/09/11 17:41:05;;;;;;;2.90;2.70;;;22.00;93.20;;;;;;8224381;28;20446;-77
2021/09/11 17:45:06;;;;;;;2.50;2.30;;;21.90;93.30;;;;;;8249365;28;20445;-78
2021/09/11 17:49:07;;;;;;;2.97;2.77;;;21.80;93.70;;;;;;8246877;28;20231;-78
2021/09/11 17:53:07;;;;;;;7.63;3.77;;;21.70;93.80;;;;;;8250571;28;20200;-77
2021/09/11 17:57:10;;;;;;;3.83;3.50;;;21.60;94.00;;;;;;8260397;28;20253;-77
2021/09/11 18:01:11;;;;;;;7.33;3.73;;;21.50;94.20;;;;;;8234597;28;20733;-77
2021/09/11 18:05:12;;;;;;;3.60;3.30;;;21.40;94.60;;;;;;8238987;28;20474;-77
2021/09/11 18:09:13;;;;;;;5.90;4.20;;;21.30;94.60;;;;;;8239516;28;20224;-77
2021/09/11 18:13:13;;;;;;;5.90;3.60;;;21.20;94.80;;;;;;8242412;28;20450;-78
2021/09/11 18:17:14;;;;;;;5.67;4.20;;;21.00;95.10;;;;;;8240852;28;20184;-78
2021/09/11 18:21:16;;;;;;;7.20;3.30;;;20.90;95.30;;;;;;8236481;28;20192;-77
2021/09/11 18:25:17;;;;;;;3.40;3.10;;;20.80;95.50;;;;;;8255060;28;20235;-78
2021/09/11 18:29:18;;;;;;;4.17;3.60;;;20.80;95.70;;;;;;8239181;28;20595;-77
2021/09/11 18:33:19;;;;;;;3.97;3.57;;;20.70;96.00;;;;;;8242235;28;20209;-78
2021/09/11 18:37:20;;;;;;;4.73;4.00;;;20.60;96.00;;;;;;8240365;28;20643;-77
2021/09/11 18:41:20;;;;;;;4.70;3.80;;;20.60;96.20;;;;;;8241733;28;20453;-78
2021/09/11 18:45:21;;;;;;;5.10;4.00;;;20.60;96.40;;;;;;8253688;28;20192;-77
2021/09/11 18:49:22;;;;;;;4.67;4.27;;;20.50;96.50;;;;;;8243711;28;20323;-78
2021/09/11 18:53:24;;;;;;;4.93;3.93;;;20.40;96.70;;;;;;8241286;28;20272;-77
2021/09/11 18:57:24;;;;;;;5.10;4.47;;;20.40;97.00;;;;;;8252785;28;20948;-78
2021/09/11 19:01:25;;;;;;;6.10;5.57;;;20.40;97.40;;;;;;8252348;28;20185;-77
2021/09/11 19:05:28;;;;;;;6.97;5.47;;;20.40;97.10;;;;;;8267932;28;20181;-78
2021/09/11 19:09:28;;;;;;;6.07;5.10;;;20.40;97.40;;;;;;8244986;28;20213;-78
2021/09/11 19:13:29;;;;;;;13.20;5.83;;;20.40;97.60;;;;;;8252608;28;20444;-77
2021/09/11 19:17:30;;;;;;;6.40;5.27;;;20.30;97.70;;;;;;8278521;28;20212;-78
2021/09/11 19:21:31;;;;;;;5.00;4.57;;;20.30;97.80;;;;;;8246371;28;20231;-78
2021/09/11 19:25:32;;;;;;;4.77;4.27;;;20.30;98.00;;;;;;8245718;28;20244;-78
2021/09/11 19:29:33;;;;;;;7.27;6.47;;;20.40;98.20;;;;;;8259277;28;20464;-78
2021/09/11 19:33:33;;;;;;;7.33;5.17;;;20.30;98.50;;;;;;8273765;28;20177;-77
2021/09/11 19:37:39;;;;;;;4.50;3.93;;;20.30;98.50;;;;;;8254077;28;20189;-77
2021/09/11 19:41:40;;;;;;;5.07;4.60;;;20.40;98.40;;;;;;8255942;28;20265;-78
2021/09/11 19:45:43;;;;;;;6.47;4.70;;;20.40;98.80;;;;;;8282274;28;20433;-78
2021/09/11 19:49:45;;;;;;;4.20;3.90;;;20.30;98.60;;;;;;8263462;28;20492;-78
2021/09/11 19:53:46;;;;;;;6.67;5.30;;;20.40;98.70;;;;;;8257324;28;20495;-80
2021/09/11 19:57:46;;;;;;;6.13;4.60;;;20.30;99.00;;;;;;8277133;28;20519;-78
2021/09/11 20:01:47;;;;;;;6.80;5.47;;;20.20;99.20;;;;;;8258157;28;20453;-79
2021/09/11 20:05:47;;;;;;;7.10;4.90;;;20.10;99.20;;;;;;8274452;28;20220;-78
2021/09/11 20:09:48;;;;;;;5.00;4.50;;;20.00;99.30;;;;;;8266247;28;20922;-79
2021/09/11 20:13:49;;;;;;;9.87;5.87;;;19.90;99.50;;;;;;8259157;28;20226;-78
2021/09/11 20:17:49;;;;;;;6.57;5.73;;;19.90;99.60;;;;;;8265508;28;20186;-77
2021/09/11 20:21:50;;;;;;;6.13;4.70;;;19.90;99.70;;;;;;8271617;28;20186;-79
2021/09/11 20:25:52;;;;;;;7.57;5.97;;;19.80;99.90;;;;;;8268307;28;20185;-79
2021/09/11 20:29:53;;;;;;;7.90;5.27;;;19.70;99.90;;;;;;8287026;28;20480;-79
2021/09/11 20:33:54;;;;;;;6.17;5.13;;;19.70;99.90;;;;;;8284797;28;20962;-79
2021/09/11 20:37:55;;;;;;;6.67;6.00;;;19.70;99.90;;;;;;8266165;28;20189;-78
2021/09/11 20:41:56;;;;;;;6.17;5.23;;;19.70;99.90;;;;;;8291329;28;20471;-78
2021/09/11 20:45:56;;;;;;;8.00;5.30;;;19.70;99.90;;;;;;8271355;28;20194;-78
2021/09/11 20:49:58;;;;;;;7.83;5.17;;;19.70;99.90;;;;;;8262554;28;20224;-80
2021/09/11 20:53:58;;;;;;;5.77;4.43;;;19.60;99.90;;;;;;8262468;28;20808;-76